createdAt,value
2019-04-04T00:01:35.618Z,6.48
2019-04-04T00:04:05.269Z,6.48
2019-04-04T00:06:34.249Z,6.58
2019-04-04T00:09:05.465Z,6.63
2019-04-04T00:11:36.930Z,6.60
2019-04-04T00:14:07.178Z,6.49
2019-04-04T00:16:36.626Z,6.51
2019-04-04T00:19:05.683Z,6.49
2019-04-04T00:21:34.652Z,6.54
2019-04-04T00:24:04.483Z,6.47
2019-04-04T00:26:33.753Z,6.51
2019-04-04T00:29:03.192Z,6.55
2019-04-04T00:31:32.682Z,6.49
2019-04-04T00:34:02.593Z,6.38
2019-04-04T00:36:33.860Z,6.30
2019-04-04T00:39:02.650Z,6.43
2019-04-04T00:41:31.404Z,6.41
2019-04-04T00:44:00.464Z,6.54
2019-04-04T00:46:30.886Z,6.60
2019-04-04T00:49:00.703Z,6.65
2019-04-04T00:51:29.441Z,6.63
2019-04-04T00:53:58.139Z,6.70
2019-04-04T00:56:26.830Z,6.70
2019-04-04T00:58:55.917Z,6.68
2019-04-04T01:01:26.949Z,6.74
2019-04-04T01:03:56.105Z,6.68
2019-04-04T01:06:24.792Z,6.66
2019-04-04T01:08:53.464Z,6.74
2019-04-04T01:11:22.482Z,6.68
2019-04-04T01:13:51.180Z,6.49
2019-04-04T01:16:19.850Z,6.33
2019-04-04T01:18:49.164Z,6.31
2019-04-04T01:21:18.196Z,6.17
2019-04-04T01:23:46.881Z,6.23
2019-04-04T01:26:15.555Z,5.91
2019-04-04T01:28:44.798Z,5.84
2019-04-04T01:31:15.006Z,5.67
2019-04-04T01:33:44.195Z,5.60
2019-04-04T01:36:12.849Z,5.44
2019-04-04T01:38:41.525Z,5.32
2019-04-04T01:41:10.176Z,5.19
2019-04-04T01:43:40.079Z,5.10
2019-04-04T01:46:09.774Z,4.93
2019-04-04T01:48:38.433Z,4.79
2019-04-04T01:51:07.971Z,4.75
2019-04-04T01:53:36.773Z,4.64
2019-04-04T01:56:06.760Z,4.32
2019-04-04T01:58:36.390Z,4.17
2019-04-04T02:01:05.216Z,4.29
2019-04-04T02:03:34.181Z,4.35
2019-04-04T02:06:02.856Z,4.37
2019-04-04T02:08:32.089Z,4.32
2019-04-04T02:11:00.846Z,4.08
2019-04-04T02:13:29.520Z,3.99
2019-04-04T02:15:58.196Z,4.09
2019-04-04T02:18:26.854Z,4.19
2019-04-04T02:20:57.690Z,4.26
2019-04-04T02:23:25.932Z,4.30
2019-04-04T02:25:54.640Z,4.26
2019-04-04T02:28:23.321Z,4.16
2019-04-04T02:30:52.580Z,4.27
2019-04-04T02:33:21.245Z,4.23
2019-04-04T02:35:49.909Z,4.16
2019-04-04T02:38:18.583Z,4.06
2019-04-04T02:40:47.259Z,4.03
2019-04-04T02:43:15.892Z,4.08
2019-04-04T02:45:44.615Z,4.39
2019-04-04T02:48:13.255Z,4.22
2019-04-04T02:50:41.918Z,4.34
2019-04-04T02:53:10.593Z,4.39
2019-04-04T02:55:39.280Z,4.29
2019-04-04T02:58:07.944Z,4.32
2019-04-04T03:00:36.662Z,4.39
2019-04-04T03:03:08.356Z,4.35
2019-04-04T03:05:35.975Z,4.43
2019-04-04T03:08:04.808Z,4.35
2019-04-04T03:10:33.885Z,4.39
2019-04-04T03:13:02.624Z,4.40
2019-04-04T03:15:31.300Z,4.42
2019-04-04T03:18:04.078Z,4.45
2019-04-04T03:20:30.519Z,4.44
2019-04-04T03:23:00.485Z,4.49
2019-04-04T03:25:29.594Z,4.56
2019-04-04T03:27:59.334Z,4.63
2019-04-04T03:30:28.206Z,4.65
2019-04-04T03:32:56.958Z,4.58
2019-04-04T03:35:28.246Z,4.61
2019-04-04T03:37:56.324Z,4.69
2019-04-04T03:40:25.923Z,4.71
2019-04-04T03:42:54.703Z,4.69
2019-04-04T03:45:26.060Z,4.66
2019-04-04T03:47:53.769Z,4.64
2019-04-04T03:50:22.420Z,4.67
2019-04-04T03:52:51.102Z,4.62
2019-04-04T03:55:19.781Z,4.59
2019-04-04T03:57:48.446Z,4.60
2019-04-04T04:00:27.341Z,4.50
2019-04-04T04:02:56.463Z,4.26
2019-04-04T04:05:26.672Z,4.24
2019-04-04T04:07:55.498Z,4.24
2019-04-04T04:10:24.227Z,4.21
2019-04-04T04:12:52.957Z,4.26
2019-04-04T04:15:21.652Z,4.49
2019-04-04T04:17:50.382Z,4.57
2019-04-04T04:20:19.042Z,4.52
2019-04-04T04:22:50.308Z,4.46
2019-04-04T04:25:18.129Z,4.39
2019-04-04T04:27:48.409Z,4.42
2019-04-04T04:30:17.548Z,4.46
2019-04-04T04:32:46.190Z,4.44
2019-04-04T04:35:14.853Z,4.58
2019-04-04T04:37:43.520Z,4.66
2019-04-04T04:40:14.914Z,4.67
2019-04-04T04:42:42.679Z,4.68
2019-04-04T04:45:12.469Z,4.76
2019-04-04T04:47:41.359Z,4.75
2019-04-04T04:50:10.162Z,4.83
2019-04-04T04:52:38.852Z,5.01
2019-04-04T04:55:07.588Z,4.99
2019-04-04T04:57:37.249Z,4.93
2019-04-04T05:00:06.989Z,4.93
2019-04-04T05:02:35.667Z,4.98
2019-04-04T05:05:04.527Z,5.09
2019-04-04T05:07:33.181Z,5.11
2019-04-04T05:10:01.855Z,5.16
2019-04-04T05:12:30.504Z,5.15
2019-04-04T05:15:01.231Z,5.15
2019-04-04T05:17:29.584Z,5.14
2019-04-04T05:19:58.255Z,5.21
2019-04-04T05:22:26.897Z,5.30
2019-04-04T05:25:07.783Z,5.27
2019-04-04T05:27:25.986Z,5.22
2019-04-04T05:29:54.698Z,5.00
2019-04-04T05:32:23.381Z,5.16
2019-04-04T05:34:52.065Z,5.28
2019-04-04T05:37:20.699Z,5.23
2019-04-04T05:39:51.461Z,5.35
2019-04-04T05:42:19.756Z,5.46
2019-04-04T05:44:48.431Z,5.35
2019-04-04T05:47:17.082Z,5.48
2019-04-04T05:49:45.758Z,5.59
2019-04-04T05:52:14.416Z,5.57
2019-04-04T05:54:43.103Z,5.63
2019-04-04T05:57:11.770Z,5.59
2019-04-04T05:59:42.288Z,5.55
2019-04-04T06:02:11.571Z,5.64
2019-04-04T06:04:40.794Z,5.72
2019-04-04T06:07:09.544Z,5.69
2019-04-04T06:09:38.278Z,5.65
2019-04-04T06:12:07.113Z,5.71
2019-04-04T06:14:35.796Z,5.65
2019-04-04T06:17:05.102Z,5.59
2019-04-04T06:19:35.036Z,5.60
2019-04-04T06:22:03.696Z,5.76
2019-04-04T06:24:32.347Z,5.74
2019-04-04T06:27:01.069Z,5.72
2019-04-04T06:29:29.763Z,5.64
2019-04-04T06:32:00.292Z,5.71
2019-04-04T06:34:28.829Z,5.87
2019-04-04T06:36:57.495Z,5.87
2019-04-04T06:39:26.188Z,5.99
2019-04-04T06:41:54.838Z,6.17
2019-04-04T06:44:23.501Z,6.08
2019-04-04T06:46:53.605Z,6.14
2019-04-04T06:49:22.828Z,6.32
2019-04-04T06:51:51.481Z,6.31
2019-04-04T06:54:20.164Z,6.38
2019-04-04T06:56:48.844Z,6.42
2019-04-04T06:59:17.524Z,6.33
2019-04-04T07:01:46.177Z,6.37
2019-04-04T07:04:17.170Z,6.46
2019-04-04T07:06:45.269Z,6.64
2019-04-04T07:09:13.977Z,6.73
2019-04-04T07:11:42.658Z,6.88
2019-04-04T07:14:11.336Z,6.78
2019-04-04T07:16:40.019Z,6.90
2019-04-04T07:19:08.688Z,6.83
2019-04-04T07:21:37.339Z,7.11
2019-04-04T07:24:06.071Z,7.11
2019-04-04T07:26:34.776Z,7.16
2019-04-04T07:29:03.568Z,7.21
2019-04-04T07:31:34.049Z,7.13
2019-04-04T07:34:02.632Z,7.17
2019-04-04T07:36:31.310Z,7.11
2019-04-04T07:39:00.298Z,6.97
2019-04-04T07:41:29.764Z,6.84
2019-04-04T07:43:58.719Z,6.88
2019-04-04T07:46:27.463Z,6.68
2019-04-04T07:48:56.162Z,6.81
2019-04-04T07:51:24.809Z,6.93
2019-04-04T07:53:53.512Z,7.02
2019-04-04T07:56:22.170Z,7.28
2019-04-04T07:58:50.829Z,7.42
2019-04-04T08:01:19.526Z,7.63
2019-04-04T08:03:48.196Z,7.81
2019-04-04T08:06:16.850Z,7.95
2019-04-04T08:08:45.539Z,7.76
2019-04-04T08:11:14.284Z,7.47
2019-04-04T08:13:42.948Z,7.22
2019-04-04T08:16:11.708Z,7.14
2019-04-04T08:18:40.368Z,7.33
2019-04-04T08:21:09.080Z,7.43
2019-04-04T08:23:37.749Z,7.47
2019-04-04T08:26:06.506Z,7.57
2019-04-04T08:28:35.202Z,7.45
2019-04-04T08:31:03.886Z,7.78
2019-04-04T08:33:32.550Z,7.94
2019-04-04T08:36:06.236Z,7.81
2019-04-04T08:38:31.646Z,8.02
2019-04-04T08:41:00.302Z,8.17
2019-04-04T08:43:28.991Z,8.25
2019-04-04T08:45:57.663Z,8.28
2019-04-04T08:48:26.350Z,8.17
2019-04-04T08:50:55.020Z,8.09
2019-04-04T08:53:23.700Z,8.08
2019-04-04T08:55:52.394Z,8.04
2019-04-04T08:58:21.055Z,8.07
2019-04-04T09:00:49.754Z,7.88
2019-04-04T09:03:18.417Z,7.93
2019-04-04T09:05:47.074Z,8.11
2019-04-04T09:08:15.769Z,8.18
2019-04-04T09:10:44.441Z,8.33
2019-04-04T09:13:13.108Z,8.38
2019-04-04T09:15:41.783Z,8.56
2019-04-04T09:18:10.460Z,8.32
2019-04-04T09:20:39.163Z,8.40
2019-04-04T09:23:08.240Z,8.48
2019-04-04T09:25:37.069Z,8.75
2019-04-04T09:28:05.804Z,9.16
2019-04-04T09:30:34.524Z,9.18
2019-04-04T09:33:03.206Z,9.29
2019-04-04T09:35:31.879Z,9.23
2019-04-04T09:38:00.553Z,9.14
2019-04-04T09:40:29.248Z,9.18
2019-04-04T09:42:57.916Z,9.61
2019-04-04T09:45:26.613Z,10.16
2019-04-04T09:47:55.277Z,9.81
2019-04-04T09:50:24.132Z,9.39
2019-04-04T09:52:53.094Z,9.56
2019-04-04T09:55:21.855Z,10.22
2019-04-04T09:57:50.545Z,10.18
2019-04-04T10:00:21.040Z,9.71
2019-04-04T10:02:49.982Z,9.78
2019-04-04T10:05:18.999Z,10.27
2019-04-04T10:07:47.675Z,10.46
2019-04-04T10:10:17.095Z,10.37
2019-04-04T10:12:45.857Z,10.20
2019-04-04T10:15:16.288Z,10.37
2019-04-04T10:17:45.416Z,10.26
2019-04-04T10:20:14.434Z,9.92
2019-04-04T10:22:43.107Z,9.45
2019-04-04T10:25:12.057Z,9.23
2019-04-04T10:27:40.710Z,9.25
2019-04-04T10:30:10.251Z,9.24
2019-04-04T10:32:39.261Z,8.99
2019-04-04T10:35:08.353Z,9.59
2019-04-04T10:37:37.098Z,9.90
2019-04-04T10:40:06.541Z,9.78
2019-04-04T10:42:35.195Z,9.29
2019-04-04T10:45:05.386Z,9.24
2019-04-04T10:47:34.065Z,9.62
2019-04-04T10:50:03.187Z,9.87
2019-04-04T10:52:32.243Z,9.79
2019-04-04T10:55:01.710Z,9.93
2019-04-04T10:57:30.501Z,9.93
2019-04-04T10:59:59.166Z,10.03
2019-04-04T11:02:27.822Z,10.08
2019-04-04T11:04:56.504Z,10.14
2019-04-04T11:07:25.166Z,10.16
2019-04-04T11:09:53.859Z,10.17
2019-04-04T11:12:22.521Z,10.37
2019-04-04T11:14:51.183Z,10.28
2019-04-04T11:17:19.861Z,10.21
2019-04-04T11:19:48.529Z,10.34
2019-04-04T11:22:17.219Z,10.20
2019-04-04T11:24:45.881Z,9.97
2019-04-04T11:27:17.334Z,9.79
2019-04-04T11:29:45.044Z,9.77
2019-04-04T11:32:13.741Z,9.64
2019-04-04T11:34:52.698Z,9.56
2019-04-04T11:37:12.797Z,9.48
2019-04-04T11:39:53.672Z,9.80
2019-04-04T11:42:12.015Z,9.78
2019-04-04T11:44:40.679Z,10.00
2019-04-04T11:47:09.354Z,9.91
2019-04-04T11:49:38.050Z,9.93
2019-04-04T11:52:06.806Z,9.99
2019-04-04T11:54:55.437Z,9.91
2019-04-04T11:57:24.156Z,9.84
2019-04-04T11:59:52.858Z,10.02
2019-04-04T12:02:21.642Z,9.78
2019-04-04T12:04:50.311Z,9.75
2019-04-04T12:07:18.983Z,9.48
2019-04-04T12:09:47.644Z,9.55
2019-04-04T12:12:16.318Z,9.72
2019-04-04T12:14:44.985Z,9.83
2019-04-04T12:17:13.663Z,9.95
2019-04-04T12:19:42.329Z,9.95
2019-04-04T12:22:11.948Z,9.88
2019-04-04T12:24:40.756Z,9.51
2019-04-04T12:27:09.419Z,9.45
2019-04-04T12:29:38.113Z,9.27
2019-04-04T12:32:06.867Z,9.21
2019-04-04T12:34:35.525Z,9.40
2019-04-04T12:37:04.199Z,9.49
2019-04-04T12:39:32.866Z,9.54
2019-04-04T12:42:01.544Z,9.33
2019-04-04T12:44:30.238Z,9.39
2019-04-04T12:46:58.917Z,9.62
2019-04-04T12:49:27.616Z,9.65
2019-04-04T12:51:56.285Z,9.72
2019-04-04T12:54:24.991Z,9.86
2019-04-04T12:56:53.644Z,9.80
2019-04-04T12:59:22.336Z,9.98
2019-04-04T13:01:50.999Z,10.23
2019-04-04T13:04:30.678Z,10.26
2019-04-04T13:06:50.072Z,10.26
2019-04-04T13:09:18.732Z,10.09
2019-04-04T13:11:47.419Z,9.76
2019-04-04T13:14:16.085Z,9.78
2019-04-04T13:16:44.737Z,9.90
2019-04-04T13:19:13.443Z,9.55
2019-04-04T13:21:42.105Z,9.32
2019-04-04T13:24:10.765Z,9.31
2019-04-04T13:26:39.459Z,9.24
2019-04-04T13:29:08.137Z,9.16
2019-04-04T13:31:36.874Z,9.04
2019-04-04T13:34:05.563Z,8.98
2019-04-04T13:36:36.596Z,8.81
2019-04-04T13:39:08.878Z,8.75
2019-04-04T13:41:37.572Z,8.78
2019-04-04T13:44:06.382Z,8.66
2019-04-04T13:46:35.135Z,8.75
2019-04-04T13:49:03.860Z,8.85
2019-04-04T13:51:32.543Z,8.72
2019-04-04T13:54:01.279Z,8.66
2019-04-04T13:56:29.938Z,8.73
2019-04-04T13:59:00.946Z,8.75
2019-04-04T14:01:29.016Z,8.71
2019-04-04T14:03:57.673Z,8.76
2019-04-04T14:06:26.465Z,8.79
2019-04-04T14:08:55.119Z,8.81
2019-04-04T14:11:23.805Z,8.85
2019-04-04T14:13:52.463Z,8.86
2019-04-04T14:16:21.116Z,8.96
2019-04-04T14:18:49.808Z,8.99
2019-04-04T14:21:18.466Z,8.87
2019-04-04T14:23:47.118Z,8.85
2019-04-04T14:26:15.807Z,8.89
2019-04-04T14:28:44.474Z,8.77
2019-04-04T14:31:13.163Z,8.93
2019-04-04T14:33:41.841Z,8.69
2019-04-04T14:36:10.607Z,8.76
2019-04-04T14:38:39.297Z,8.73
2019-04-04T14:41:11.553Z,8.64
2019-04-04T14:43:38.425Z,8.63
2019-04-04T14:46:07.083Z,8.57
2019-04-04T14:48:35.768Z,8.56
2019-04-04T14:51:04.504Z,8.70
2019-04-04T14:53:33.192Z,8.78
2019-04-04T14:56:01.858Z,8.67
2019-04-04T14:58:30.956Z,8.63
2019-04-04T15:00:59.965Z,8.92
2019-04-04T15:03:28.641Z,9.04
2019-04-04T15:05:57.325Z,8.87
2019-04-04T15:08:26.013Z,8.79
2019-04-04T15:10:54.676Z,8.80
2019-04-04T15:13:23.352Z,8.83
2019-04-04T15:16:11.035Z,8.87
2019-04-04T15:18:39.713Z,8.90
2019-04-04T15:21:08.543Z,8.63
2019-04-04T15:23:38.068Z,8.52
2019-04-04T15:26:09.640Z,8.45
2019-04-04T15:28:37.304Z,8.34
2019-04-04T15:31:06.708Z,8.33
2019-04-04T15:33:35.433Z,8.38
2019-04-04T15:36:04.343Z,8.45
2019-04-04T15:38:33.006Z,8.44
2019-04-04T15:41:01.712Z,8.39
2019-04-04T15:43:30.469Z,8.26
2019-04-04T15:45:59.274Z,8.33
2019-04-04T15:48:27.968Z,8.39
2019-04-04T15:50:56.628Z,8.29
2019-04-04T15:53:25.359Z,8.27
2019-04-04T15:55:54.048Z,8.31
2019-04-04T15:58:22.723Z,8.31
2019-04-04T16:00:51.400Z,8.37
2019-04-04T16:03:20.088Z,8.38
2019-04-04T16:05:48.839Z,8.44
2019-04-04T16:08:17.481Z,8.40
2019-04-04T16:10:46.234Z,8.43
2019-04-04T16:13:14.915Z,8.37
2019-04-04T16:15:43.607Z,8.32
2019-04-04T16:18:12.531Z,8.23
2019-04-04T16:20:41.183Z,8.31
2019-04-04T16:23:09.847Z,8.26
2019-04-04T16:25:38.615Z,8.21
2019-04-04T16:28:07.370Z,8.22
2019-04-04T16:30:38.346Z,8.21
2019-04-04T16:33:07.023Z,8.18
2019-04-04T16:35:35.679Z,8.11
2019-04-04T16:38:04.352Z,8.15
2019-04-04T16:40:33.179Z,8.19
2019-04-04T16:43:02.493Z,8.24
2019-04-04T16:45:31.360Z,8.23
2019-04-04T16:48:00.013Z,8.20
2019-04-04T16:50:28.667Z,8.21
2019-04-04T16:52:57.356Z,8.21
2019-04-04T16:55:26.108Z,8.23
2019-04-04T16:57:54.988Z,8.23
2019-04-04T17:00:24.520Z,8.29
2019-04-04T17:02:53.173Z,8.34
2019-04-04T17:05:21.940Z,8.22
2019-04-04T17:07:50.628Z,8.32
2019-04-04T17:10:19.740Z,8.35
2019-04-04T17:12:48.403Z,8.37
2019-04-04T17:15:17.250Z,8.27
2019-04-04T17:17:45.909Z,8.24
2019-04-04T17:20:15.516Z,8.17
2019-04-04T17:22:44.208Z,8.12
2019-04-04T17:25:14.833Z,8.06
2019-04-04T17:27:43.329Z,8.06
2019-04-04T17:30:12.851Z,8.03
2019-04-04T17:32:42.182Z,8.00
2019-04-04T17:35:11.135Z,8.03
2019-04-04T17:37:40.177Z,7.98
2019-04-04T17:40:09.439Z,7.95
2019-04-04T17:42:38.548Z,7.91
2019-04-04T17:45:09.383Z,7.87
2019-04-04T17:47:38.603Z,7.88
2019-04-04T17:50:08.519Z,7.87
2019-04-04T17:52:37.254Z,7.89
2019-04-04T17:55:07.640Z,7.81
2019-04-04T17:57:36.377Z,7.71
2019-04-04T18:00:07.452Z,7.62
2019-04-04T18:02:36.608Z,7.59
2019-04-04T18:05:06.043Z,7.54
2019-04-04T18:07:34.705Z,7.53
2019-04-04T18:10:03.439Z,7.49
2019-04-04T18:12:40.243Z,7.52
2019-04-04T18:15:02.565Z,7.51
2019-04-04T18:17:31.259Z,7.52
2019-04-04T18:19:59.917Z,7.56
2019-04-04T18:22:28.589Z,7.58
2019-04-04T18:24:57.749Z,7.56
2019-04-04T18:27:26.468Z,7.54
2019-04-04T18:29:55.176Z,7.54
2019-04-04T18:32:23.863Z,7.53
2019-04-04T18:34:52.536Z,7.47
2019-04-04T18:37:21.210Z,7.42
2019-04-04T18:39:49.890Z,7.37
2019-04-04T18:42:18.577Z,7.25
2019-04-04T18:44:47.236Z,7.20
2019-04-04T18:47:15.963Z,7.19
2019-04-04T18:49:44.641Z,7.17
2019-04-04T18:52:13.333Z,7.14
2019-04-04T18:54:41.980Z,7.13
2019-04-04T18:57:13.074Z,7.10
2019-04-04T18:59:41.048Z,7.10
2019-04-04T19:02:10.067Z,7.12
2019-04-04T19:04:38.726Z,7.09
2019-04-04T19:07:07.402Z,7.10
2019-04-04T19:09:36.063Z,7.12
2019-04-04T19:12:04.817Z,7.11
2019-04-04T19:14:33.566Z,7.08
2019-04-04T19:17:02.336Z,7.10
2019-04-04T19:19:30.987Z,7.05
2019-04-04T19:21:59.726Z,7.06
2019-04-04T19:24:28.412Z,7.07
2019-04-04T19:26:57.188Z,7.04
2019-04-04T19:29:25.936Z,7.00
2019-04-04T19:31:54.618Z,7.02
2019-04-04T19:34:23.310Z,7.00
2019-04-04T19:36:52.166Z,6.98
2019-04-04T19:39:20.819Z,7.00
2019-04-04T19:41:49.509Z,7.04
2019-04-04T19:44:18.182Z,7.06
2019-04-04T19:46:46.870Z,7.06
2019-04-04T19:49:15.514Z,7.08
2019-04-04T19:51:44.172Z,7.06
2019-04-04T19:54:12.856Z,7.05
2019-04-04T19:56:41.518Z,7.06
2019-04-04T19:59:10.186Z,7.09
2019-04-04T20:01:38.864Z,7.09
2019-04-04T20:04:07.526Z,7.09
2019-04-04T20:06:36.213Z,7.14
2019-04-04T20:09:07.247Z,7.20
2019-04-04T20:11:36.108Z,7.20
2019-04-04T20:14:05.035Z,7.24
2019-04-04T20:16:33.729Z,7.23
2019-04-04T20:19:02.456Z,7.20
2019-04-04T20:21:31.113Z,7.18
2019-04-04T20:23:59.795Z,7.14
2019-04-04T20:26:28.457Z,7.08
2019-04-04T20:28:57.149Z,7.00
2019-04-04T20:31:25.810Z,7.00
2019-04-04T20:34:01.639Z,6.98
2019-04-04T20:36:24.903Z,6.92
2019-04-04T20:38:54.003Z,6.93
2019-04-04T20:41:22.663Z,6.93
2019-04-04T20:43:51.352Z,6.94
2019-04-04T20:46:20.025Z,6.84
2019-04-04T20:48:48.774Z,6.88
2019-04-04T20:51:17.740Z,6.89
2019-04-04T20:53:46.623Z,6.88
2019-04-04T20:56:15.462Z,6.82
2019-04-04T20:58:44.091Z,6.82
2019-04-04T21:01:12.751Z,6.79
2019-04-04T21:03:41.427Z,6.76
2019-04-04T21:06:10.078Z,6.71
2019-04-04T21:08:38.752Z,6.69
2019-04-04T21:11:07.423Z,6.66
2019-04-04T21:13:36.097Z,6.69
2019-04-04T21:16:04.845Z,6.70
2019-04-04T21:18:33.513Z,6.68
2019-04-04T21:21:02.196Z,6.64
2019-04-04T21:23:30.848Z,6.67
2019-04-04T21:25:59.506Z,6.68
2019-04-04T21:28:28.191Z,6.67
2019-04-04T21:30:56.854Z,6.58
2019-04-04T21:33:25.512Z,6.52
2019-04-04T21:35:54.191Z,6.54
2019-04-04T21:38:22.894Z,6.53
2019-04-04T21:40:51.547Z,6.51
2019-04-04T21:43:20.205Z,6.49
2019-04-04T21:45:48.873Z,6.47
2019-04-04T21:48:17.532Z,6.46
2019-04-04T21:50:46.228Z,6.48
2019-04-04T21:53:14.890Z,6.46
2019-04-04T21:55:43.543Z,6.41
2019-04-04T21:58:12.223Z,6.40
2019-04-04T22:00:43.660Z,6.41
2019-04-04T22:03:12.411Z,6.35
2019-04-04T22:05:41.064Z,6.30
2019-04-04T22:08:09.821Z,6.35
2019-04-04T22:10:38.477Z,6.32
2019-04-04T22:13:07.214Z,6.34
2019-04-04T22:15:35.970Z,6.34
2019-04-04T22:18:04.715Z,6.37
2019-04-04T22:20:33.373Z,6.38
2019-04-04T22:23:02.054Z,6.35
2019-04-04T22:25:30.778Z,6.33
2019-04-04T22:27:59.509Z,6.34
2019-04-04T22:30:28.215Z,6.34
2019-04-04T22:32:56.851Z,6.30
2019-04-04T22:35:25.506Z,6.28
2019-04-04T22:37:54.261Z,6.27
2019-04-04T22:40:22.977Z,6.27
2019-04-04T22:42:51.634Z,6.27
2019-04-04T22:45:20.289Z,6.26
2019-04-04T22:47:49.056Z,6.29
2019-04-04T22:50:17.735Z,6.26
2019-04-04T22:52:46.393Z,6.28
2019-04-04T22:55:15.155Z,6.29
2019-04-04T22:57:43.888Z,6.30
2019-04-04T23:00:14.165Z,6.29
2019-04-04T23:02:42.868Z,6.28
2019-04-04T23:05:11.663Z,6.26
2019-04-04T23:07:40.319Z,6.30
2019-04-04T23:10:10.438Z,6.24
2019-04-04T23:12:39.203Z,6.26
2019-04-04T23:15:08.741Z,6.30
2019-04-04T23:17:37.494Z,6.29
2019-04-04T23:20:07.829Z,6.29
2019-04-04T23:22:36.484Z,6.30
2019-04-04T23:25:05.992Z,6.28
2019-04-04T23:27:34.662Z,6.27
2019-04-04T23:30:03.764Z,6.31
2019-04-04T23:32:32.419Z,6.26
2019-04-04T23:35:01.110Z,6.26
2019-04-04T23:37:29.780Z,6.25
2019-04-04T23:39:58.511Z,6.26
2019-04-04T23:42:27.499Z,6.24
2019-04-04T23:45:01.221Z,6.27
2019-04-04T23:47:26.541Z,6.28
2019-04-04T23:49:55.223Z,6.27
2019-04-04T23:52:23.876Z,6.27
2019-04-04T23:54:52.528Z,6.30
2019-04-04T23:57:21.212Z,6.30
2019-04-04T23:59:49.866Z,6.30
